Time;durP1;ratioP1;P1;durP2;ratioP2;P2;SDS_P1;SDS_P2;PMS_P1;PMS_P2;Temp;Humidity;BMP_temperature;BMP_pressure;BME280_temperature;BME280_humidity;BME280_pressure;Samples;Min_cycle;Max_cycle;Signal;HPM_P1;HPM_P2
2023/09/06 00:01:08;;;;;;;14.75;14.15;;;;;;;-141.02;100.00;39988.22;5115062;28;20189;-57
2023/09/06 00:03:37;;;;;;;14.85;14.25;;;;;;;-141.02;100.00;39982.47;5114993;28;20197;-56
2023/09/06 00:06:05;;;;;;;15.13;14.52;;;;;;;-141.02;100.00;39928.78;5114710;27;20546;-75
2023/09/06 00:08:34;;;;;;;14.80;14.20;;;;;;;-141.02;100.00;40103.31;5114581;28;20280;-57
2023/09/06 00:11:04;;;;;;;15.10;14.50;;;;;;;-141.02;100.00;40087.97;5114874;28;20233;-57
2023/09/06 00:13:32;;;;;;;14.85;14.27;;;;;;;-141.02;100.00;40053.44;5114771;28;20223;-57
2023/09/06 00:16:00;;;;;;;14.82;14.32;;;;;;;-141.02;100.00;40064.97;5114466;28;20231;-57
2023/09/06 00:18:37;;;;;;;14.45;13.95;;;;;;;-141.02;100.00;40141.69;5114453;28;20645;-58
2023/09/06 00:21:44;;;;;;;14.40;13.90;;;;;;;-141.02;100.00;40362.28;5114364;28;20193;-57
2023/09/06 00:24:13;;;;;;;14.35;13.85;;;;;;;-141.02;100.00;40460.13;5114036;28;20610;-57
2023/09/06 00:26:40;;;;;;;14.38;13.88;;;;;;;-141.02;100.00;40439.03;5114530;28;20577;-57
2023/09/06 00:29:07;;;;;;;14.18;13.68;;;;;;;-141.02;100.00;40550.28;5114442;28;20228;-69
2023/09/06 00:31:34;;;;;;;14.25;13.75;;;;;;;-141.02;100.00;40414.09;5114218;28;20193;-57
2023/09/06 00:34:03;;;;;;;14.30;13.80;;;;;;;-141.02;100.00;40377.63;5114013;28;20730;-57
2023/09/06 00:36:32;;;;;;;14.07;13.57;;;;;;;-141.02;100.00;40364.22;5114114;28;20196;-76
2023/09/06 00:38:59;;;;;;;14.20;13.70;;;;;;;-141.02;100.00;40314.34;5114278;28;20198;-57
2023/09/06 00:41:28;;;;;;;13.88;13.38;;;;;;;-141.02;100.00;40341.19;5114291;28;20215;-57
2023/09/06 00:43:55;;;;;;;13.88;13.38;;;;;;;-141.02;100.00;40439.03;5113859;27;20289;-59
2023/09/06 00:46:24;;;;;;;13.90;13.40;;;;;;;-141.02;100.00;40435.19;5113877;28;20197;-57
2023/09/06 00:48:51;;;;;;;13.70;13.20;;;;;;;-141.02;100.00;40331.59;5114199;28;20280;-57
2023/09/06 00:51:20;;;;;;;14.80;14.30;;;;;;;-141.02;100.00;40322.00;5113761;28;20231;-75
2023/09/06 00:53:49;;;;;;;13.85;13.35;;;;;;;-141.02;100.00;40279.81;5114084;28;20189;-74
2023/09/06 00:56:24;;;;;;;14.02;13.52;;;;;;;-141.02;100.00;40201.16;5113560;28;20231;-57
2023/09/06 00:58:51;;;;;;;14.25;13.75;;;;;;;-141.02;100.00;40283.63;5113950;28;20224;-68
2023/09/06 01:01:19;;;;;;;14.20;13.70;;;;;;;-141.02;100.00;40274.06;5113506;28;20189;-57
2023/09/06 01:03:46;;;;;;;14.40;13.90;;;;;;;-141.02;100.00;40283.63;5113884;28;20558;-57
2023/09/06 01:06:17;;;;;;;14.57;14.07;;;;;;;-141.02;100.00;40241.44;5113502;28;20201;-60
2023/09/06 01:08:50;;;;;;;14.55;14.05;;;;;;;-141.02;100.00;40153.19;5113770;28;20200;-59
2023/09/06 01:11:22;;;;;;;14.68;14.18;;;;;;;-141.02;100.00;40114.84;5113663;28;20192;-57
2023/09/06 01:13:50;;;;;;;14.63;14.13;;;;;;;-141.02;100.00;40118.66;5113671;28;20185;-58
2023/09/06 01:16:22;;;;;;;14.82;14.32;;;;;;;-141.02;100.00;40078.38;5113349;28;20732;-58
2023/09/06 01:18:49;;;;;;;14.10;13.60;;;;;;;-141.02;100.00;40091.81;5113638;28;20189;-57
2023/09/06 01:21:35;;;;;;;14.38;13.88;;;;;;;-141.02;100.00;40076.47;5113507;28;20280;-57
2023/09/06 01:24:05;;;;;;;14.40;13.90;;;;;;;-141.02;100.00;40028.50;5112850;28;20196;-57
2023/09/06 01:26:34;;;;;;;15.02;14.43;;;;;;;-141.02;100.00;39934.53;5113760;28;20614;-57
2023/09/06 01:29:01;;;;;;;15.00;14.40;;;;;;;-141.02;100.00;39938.38;5113504;28;20320;-57
2023/09/06 01:31:28;;;;;;;15.18;14.57;;;;;;;-141.02;100.00;39951.78;5113050;28;20554;-57
2023/09/06 01:33:55;;;;;;;15.00;14.40;;;;;;;-141.02;100.00;39823.28;5112980;28;20652;-74
2023/09/06 01:36:22;;;;;;;14.98;14.38;;;;;;;-141.02;100.00;39763.81;5112858;28;20221;-57
2023/09/06 01:38:51;;;;;;;15.13;14.52;;;;;;;-141.02;100.00;39704.38;5113185;28;20559;-59
2023/09/06 01:41:19;;;;;;;15.15;14.55;;;;;;;-141.02;100.00;39758.06;5113190;28;20284;-73
2023/09/06 01:43:50;;;;;;;15.48;14.88;;;;;;;-141.02;100.00;39777.25;5113142;28;20288;-57
2023/09/06 01:46:17;;;;;;;15.45;14.85;;;;;;;-141.02;100.00;39750.41;5113404;28;20203;-74
2023/09/06 01:48:44;;;;;;;15.65;15.05;;;;;;;-141.02;100.00;39850.13;5113072;28;20315;-57
2023/09/06 01:51:13;;;;;;;15.38;14.77;;;;;;;-141.02;100.00;39792.59;5112742;28;20547;-57
2023/09/06 01:53:40;;;;;;;15.15;14.55;;;;;;;-141.02;100.00;39742.72;5113031;28;20197;-58
2023/09/06 01:56:08;;;;;;;15.52;14.93;;;;;;;-141.02;100.00;39735.06;5112927;28;20230;-57
2023/09/06 01:58:37;;;;;;;15.73;15.13;;;;;;;-141.02;100.00;39712.03;5112865;28;20197;-57
2023/09/06 02:01:04;;;;;;;15.95;15.35;;;;;;;-141.02;100.00;39777.25;5112911;28;20284;-57
2023/09/06 02:03:33;;;;;;;15.60;15.00;;;;;;;-141.02;100.00;39827.13;5112521;28;20205;-62
2023/09/06 02:06:25;;;;;;;15.10;14.50;;;;;;;-141.02;100.00;39802.19;5112819;28;20201;-75
2023/09/06 02:11:52;;;;;;;15.50;14.90;;;;;;;-141.02;100.00;39775.34;5112637;28;20200;-57
2023/09/06 02:14:20;;;;;;;15.18;14.57;;;;;;;-141.02;100.00;39777.25;5112186;28;20181;-57
2023/09/06 02:20:33;;;;;;;14.68;14.18;;;;;;;-141.02;100.00;39823.28;5112745;28;20176;-58
2023/09/06 02:26:21;;;;;;;14.63;14.13;;;;;;;-141.02;100.00;39821.38;5112773;28;20264;-57
2023/09/06 02:28:51;;;;;;;14.38;13.88;;;;;;;-141.02;100.00;39827.13;5112073;28;20290;-75
2023/09/06 02:31:29;;;;;;;14.43;13.93;;;;;;;-141.02;100.00;39748.47;5112393;28;20272;-57
2023/09/06 02:34:01;;;;;;;14.45;13.95;;;;;;;-141.02;100.00;39781.09;5112179;28;20181;-57
2023/09/06 02:37:01;;;;;;;14.23;13.73;;;;;;;-141.02;100.00;39809.84;5115352;28;20602;-57
2023/09/06 02:40:11;;;;;;;15.20;14.60;;;;;;;-141.02;100.00;39790.69;5116257;28;20242;-58
2023/09/06 02:46:52;;;;;;;14.82;14.23;;;;;;;-141.02;100.00;39508.75;5112098;28;20292;-58
2023/09/06 02:52:20;;;;;;;15.13;14.52;;;;;;;-141.02;100.00;39520.25;5114386;28;20185;-58
2023/09/06 02:58:09;;;;;;;15.20;14.60;;;;;;;-141.02;100.00;39416.69;5116129;28;20561;-57
2023/09/06 03:00:40;;;;;;;15.40;14.80;;;;;;;-141.02;100.00;39432.03;5115979;28;20645;-57
2023/09/06 03:03:33;;;;;;;15.23;14.63;;;;;;;-141.02;100.00;39474.22;5116281;28;20272;-58
2023/09/06 03:06:03;;;;;;;15.32;14.73;;;;;;;-141.02;100.00;39478.06;5115584;28;20190;-59
2023/09/06 03:08:59;;;;;;;15.50;14.90;;;;;;;-141.02;100.00;39462.72;5116142;28;20213;-57
2023/09/06 03:14:43;;;;;;;14.63;14.13;;;;;;;-141.02;100.00;39458.88;5111205;28;20301;-57
2023/09/06 03:23:44;;;;;;;15.10;14.50;;;;;;;-141.02;100.00;39366.81;5093553;28;20566;-58
2023/09/06 03:32:28;;;;;;;14.30;13.80;;;;;;;-141.02;100.00;39447.38;5093065;28;20621;-58
2023/09/06 03:34:55;;;;;;;14.40;13.90;;;;;;;-141.02;100.00;39389.84;5093014;28;20234;-58
2023/09/06 03:37:23;;;;;;;14.98;14.38;;;;;;;-141.02;100.00;39397.50;5092928;28;20263;-58
2023/09/06 03:39:53;;;;;;;14.73;14.23;;;;;;;-141.02;100.00;39439.69;5092746;28;20202;-58
2023/09/06 03:42:22;;;;;;;14.45;13.95;;;;;;;-141.02;100.00;39581.63;5092827;28;20190;-58
2023/09/06 03:44:51;;;;;;;14.48;13.98;;;;;;;-141.02;100.00;39643.00;5092694;28;20280;-58
2023/09/06 03:47:19;;;;;;;14.65;14.15;;;;;;;-141.02;100.00;39681.34;5091987;28;20772;-58
2023/09/06 03:49:46;;;;;;;15.20;14.60;;;;;;;-141.02;100.00;39807.94;5092818;28;20675;-58
2023/09/06 03:52:16;;;;;;;14.50;14.00;;;;;;;-141.02;100.00;40260.63;5092578;28;20280;-58
2023/09/06 03:54:44;;;;;;;14.40;13.90;;;;;;;-141.02;100.00;40322.00;5092661;28;20201;-58
2023/09/06 03:57:12;;;;;;;14.30;13.80;;;;;;;-141.02;100.00;40448.63;5092578;28;20306;-67
2023/09/06 03:59:40;;;;;;;14.60;14.10;;;;;;;-141.02;100.00;40556.03;5092558;28;20240;-58
2023/09/06 04:02:13;;;;;;;14.80;14.30;;;;;;;-141.02;100.00;40698.00;5114780;28;20196;-59
2023/09/06 04:04:40;;;;;;;14.70;14.20;;;;;;;-141.02;100.00;40970.47;5115199;28;20269;-58
2023/09/06 04:07:07;;;;;;;14.20;13.70;;;;;;;-141.02;100.00;41156.56;5115166;28;20250;-58
2023/09/06 04:09:37;;;;;;;14.63;14.13;;;;;;;-141.02;100.00;41225.66;5114519;28;20189;-58
2023/09/06 04:12:06;;;;;;;13.90;13.40;;;;;;;-141.02;100.00;41565.31;5114936;28;20224;-58
2023/09/06 04:14:35;;;;;;;14.40;13.90;;;;;;;-141.02;100.00;41918.41;5114585;28;20197;-58
2023/09/06 04:17:04;;;;;;;14.57;14.07;;;;;;;-141.02;100.00;42054.69;5114828;27;20231;-58
2023/09/06 04:19:33;;;;;;;14.40;13.90;;;;;;;-141.02;100.00;42179.44;5114503;28;20200;-58
2023/09/06 04:22:01;;;;;;;14.00;13.50;;;;;;;-141.02;100.00;42413.63;5114768;28;20276;-59
2023/09/06 04:24:28;;;;;;;14.60;14.00;;;;;;;-141.02;100.00;42271.56;5114355;28;20193;-58
2023/09/06 04:26:55;;;;;;;14.90;14.30;;;;;;;-141.02;100.00;42586.38;5114366;28;20288;-58
2023/09/06 04:29:24;;;;;;;14.23;13.73;;;;;;;-141.02;100.00;42843.63;5114114;28;20760;-58
2023/09/06 04:31:51;;;;;;;14.73;14.13;;;;;;;-141.02;100.00;42686.19;5114570;28;20193;-58
2023/09/06 04:34:19;;;;;;;14.05;13.55;;;;;;;-141.02;100.00;43381.19;5114397;28;20232;-58
2023/09/06 04:36:46;;;;;;;14.38;13.88;;;;;;;-141.02;100.00;43822.84;5114041;28;20267;-58
2023/09/06 04:39:13;;;;;;;14.48;13.98;;;;;;;-141.02;100.00;44057.13;5114692;28;20189;-59
2023/09/06 04:41:40;;;;;;;15.27;14.68;;;;;;;-141.02;100.00;42912.72;5114104;28;20235;-58
2023/09/06 04:44:07;;;;;;;15.10;14.50;;;;;;;-141.02;100.00;42786.03;5114373;28;20243;-58
2023/09/06 04:46:35;;;;;;;15.50;14.90;;;;;;;-141.02;100.00;42632.44;5114256;28;20276;-58
2023/09/06 04:49:02;;;;;;;15.32;14.73;;;;;;;-141.02;100.00;42565.25;5114158;28;20221;-64
2023/09/06 04:51:29;;;;;;;15.60;14.95;;;;;;;-141.02;100.00;42333.00;5114112;28;20732;-58
2023/09/06 04:53:56;;;;;;;16.10;15.40;;;;;;;-141.02;100.00;42369.47;5113772;28;20820;-72
2023/09/06 04:56:25;;;;;;;16.30;15.60;;;;;;;-141.02;100.00;42390.59;5113732;28;20224;-58
2023/09/06 04:58:52;;;;;;;16.55;15.85;;;;;;;-141.02;100.00;42382.91;5112713;28;20247;-58
2023/09/06 05:01:19;;;;;;;16.65;15.95;;;;;;;-141.02;100.00;42402.09;5113921;28;20197;-58
2023/09/06 05:03:47;;;;;;;16.33;15.63;;;;;;;-141.02;100.00;42463.53;5113960;28;20236;-71
2023/09/06 05:06:14;;;;;;;16.25;15.55;;;;;;;-141.02;100.00;42494.25;5113864;28;20197;-58
2023/09/06 05:08:41;;;;;;;15.80;15.10;;;;;;;-141.02;100.00;42686.19;5113816;28;20276;-58
2023/09/06 05:11:08;;;;;;;16.92;16.23;;;;;;;-141.02;100.00;42409.78;5113744;28;20197;-59
2023/09/06 05:13:37;;;;;;;16.67;15.98;;;;;;;-141.02;100.00;42551.81;5113758;28;20713;-58
2023/09/06 05:16:06;;;;;;;16.75;16.00;;;;;;;-141.02;100.00;42707.31;5113636;28;20250;-59
2023/09/06 05:18:33;;;;;;;16.73;16.02;;;;;;;-141.02;100.00;42716.91;5113317;28;20694;-58
2023/09/06 05:21:04;;;;;;;17.40;16.60;;;;;;;-141.02;100.00;42453.94;5113493;28;20289;-59
2023/09/06 05:23:32;;;;;;;16.95;16.15;;;;;;;-141.02;100.00;42739.94;5113204;27;20185;-59
2023/09/06 05:25:59;;;;;;;16.90;16.10;;;;;;;-141.02;100.00;42605.56;5113816;28;20221;-64
2023/09/06 05:28:26;;;;;;;17.02;16.23;;;;;;;-141.02;100.00;42586.38;5113199;28;20753;-67
2023/09/06 05:30:53;;;;;;;17.20;16.40;;;;;;;-141.02;100.00;42724.59;5113251;28;20229;-71
2023/09/06 05:33:20;;;;;;;17.15;16.35;;;;;;;-141.02;100.00;42774.50;5113363;28;20219;-58
2023/09/06 05:35:47;;;;;;;17.42;16.63;;;;;;;-141.02;100.00;42770.66;5112893;28;20266;-59
2023/09/06 05:38:16;;;;;;;17.70;16.90;;;;;;;-141.02;100.00;42544.16;5113939;28;20613;-70
2023/09/06 05:40:44;;;;;;;17.70;16.90;;;;;;;-141.02;100.00;42724.59;5113206;28;20675;-59
2023/09/06 05:43:38;;;;;;;17.27;16.48;;;;;;;-141.02;100.00;42759.16;5112886;28;20189;-59
2023/09/06 05:46:05;;;;;;;17.38;16.58;;;;;;;-141.02;100.00;42713.06;5113178;28;20189;-58
2023/09/06 05:48:32;;;;;;;17.55;16.75;;;;;;;-141.02;100.00;42617.09;5113117;28;20228;-58
2023/09/06 05:50:59;;;;;;;17.60;16.80;;;;;;;-141.02;100.00;42874.34;5112773;28;20197;-59
2023/09/06 05:53:29;;;;;;;17.50;16.70;;;;;;;-141.02;100.00;42989.53;5112831;28;20292;-58
2023/09/06 05:55:57;;;;;;;17.17;16.38;;;;;;;-141.02;100.00;43054.78;5112716;28;20221;-59
2023/09/06 05:58:24;;;;;;;17.70;16.80;;;;;;;-141.02;100.00;43338.94;5112956;28;20189;-59
2023/09/06 06:00:53;;;;;;;16.95;16.15;;;;;;;-141.02;100.00;43273.66;5113015;28;20272;-59
2023/09/06 06:03:20;;;;;;;17.48;16.67;;;;;;;-141.02;100.00;43283.28;5112591;28;20201;-64
2023/09/06 06:05:47;;;;;;;18.00;17.10;;;;;;;-141.02;100.00;43264.06;5112982;28;20199;-59
2023/09/06 06:08:14;;;;;;;18.15;17.25;;;;;;;-141.02;100.00;43308.22;5112858;28;20643;-59
2023/09/06 06:10:42;;;;;;;18.00;17.10;;;;;;;-141.02;100.00;43646.16;5112165;28;20193;-59
2023/09/06 06:13:11;;;;;;;18.10;17.20;;;;;;;-141.02;100.00;43494.47;5112775;28;20276;-59
2023/09/06 06:15:38;;;;;;;17.70;16.80;;;;;;;-141.02;100.00;42928.09;5112369;28;20188;-59
2023/09/06 06:18:05;;;;;;;17.88;16.98;;;;;;;-141.02;100.00;43004.88;5112464;28;20288;-59
2023/09/06 06:20:32;;;;;;;16.98;16.17;;;;;;;-141.02;100.00;43118.16;5112749;28;20661;-59
2023/09/06 06:23:00;;;;;;;17.30;16.40;;;;;;;-141.02;100.00;42964.56;5112695;28;20197;-59
2023/09/06 06:25:26;;;;;;;17.20;16.40;;;;;;;-141.02;100.00;43312.06;5112649;28;20196;-59
2023/09/06 06:27:55;;;;;;;17.15;16.35;;;;;;;-141.02;100.00;43056.72;5112648;28;20219;-69
2023/09/06 06:30:22;;;;;;;16.80;16.00;;;;;;;-141.02;100.00;43162.31;5112461;28;20312;-59
2023/09/06 06:32:49;;;;;;;16.58;15.77;;;;;;;-141.02;100.00;43100.88;5112573;28;20276;-59
2023/09/06 06:35:16;;;;;;;16.13;15.43;;;;;;;-141.02;100.00;43131.59;5112623;28;20195;-59
2023/09/06 06:37:44;;;;;;;16.60;15.80;;;;;;;-141.02;100.00;43538.63;5112457;28;20267;-59
2023/09/06 06:40:12;;;;;;;16.60;15.80;;;;;;;-141.02;100.00;43580.88;5112254;28;20211;-60
2023/09/06 06:42:40;;;;;;;17.42;16.52;;;;;;;-141.02;100.00;43663.44;5112548;28;20233;-59
2023/09/06 06:45:09;;;;;;;16.67;15.88;;;;;;;-141.02;100.00;43807.47;5112428;28;20197;-60
2023/09/06 06:47:36;;;;;;;17.40;16.60;;;;;;;-141.02;98.92;43899.66;5112236;28;20667;-61
2023/09/06 06:50:06;;;;;;;17.55;16.65;;;;;;;-141.02;94.46;43454.16;5112444;28;20296;-61
2023/09/06 06:52:35;;;;;;;18.33;17.33;;;;;;;-141.02;94.09;43592.41;5112474;28;20280;-69
2023/09/06 06:55:03;;;;;;;18.35;17.45;;;;;;;-141.02;92.96;43678.81;5112089;28;20624;-60
2023/09/06 06:57:31;;;;;;;18.77;17.88;;;;;;;-141.02;92.66;43811.31;5111991;28;20323;-59
2023/09/06 06:59:57;;;;;;;19.15;18.25;;;;;;;-141.02;93.03;43959.19;5112391;28;20378;-60
2023/09/06 07:02:26;;;;;;;19.45;18.55;;;;;;;-141.02;91.93;43671.13;5112158;28;20230;-69
2023/09/06 07:04:55;;;;;;;20.10;19.10;;;;;;;-141.02;91.30;43112.41;5112326;28;20281;-60
2023/09/06 07:07:22;;;;;;;19.10;18.20;;;;;;;-141.02;93.25;43550.16;5111985;28;20284;-66
2023/09/06 07:09:49;;;;;;;18.85;17.95;;;;;;;-141.02;93.34;43511.75;5112261;28;20280;-65
2023/09/06 07:12:16;;;;;;;18.73;17.75;;;;;;;-141.02;93.74;43555.91;5112240;28;20628;-60
2023/09/06 07:14:43;;;;;;;19.20;18.30;;;;;;;-141.02;92.75;43607.75;5112302;28;20196;-61
2023/09/06 07:17:10;;;;;;;19.55;18.65;;;;;;;-141.02;91.67;43903.50;5111822;28;20718;-61
2023/09/06 07:19:38;;;;;;;19.83;18.83;;;;;;;-141.02;89.22;43907.31;5112191;28;20281;-60
2023/09/06 07:22:05;;;;;;;19.80;18.80;;;;;;;-141.02;88.47;44260.69;5112555;28;20229;-68
2023/09/06 07:24:32;;;;;;;20.10;19.10;;;;;;;-141.02;85.74;44172.34;5115912;28;20189;-60
2023/09/06 07:26:59;;;;;;;20.25;19.25;;;;;;;-141.02;86.14;43926.53;5115910;28;20236;-61
2023/09/06 07:29:26;;;;;;;19.88;18.90;;;;;;;-141.02;85.12;45226.88;5115652;28;20304;-61
2023/09/06 07:31:53;;;;;;;20.38;19.38;;;;;;;-141.02;84.16;45436.28;5115723;28;20193;-61
2023/09/06 07:34:20;;;;;;;20.98;19.98;;;;;;;-141.02;83.24;45663.00;5115711;28;20196;-61
2023/09/06 07:36:49;;;;;;;20.85;19.85;;;;;;;-141.02;81.62;45355.59;5115549;28;20228;-60
2023/09/06 07:39:18;;;;;;;20.50;19.50;;;;;;;-141.02;82.28;45347.91;5115607;28;20229;-60
2023/09/06 07:41:51;;;;;;;20.58;19.58;;;;;;;-141.02;82.15;45328.69;5115275;28;20280;-61
2023/09/06 07:44:19;;;;;;;20.10;19.10;;;;;;;-141.02;82.06;46124.16;5115492;28;20197;-61
2023/09/06 07:46:48;;;;;;;21.10;20.00;;;;;;;-141.02;79.49;45995.41;5115181;28;20731;-61
2023/09/06 07:49:16;;;;;;;20.80;19.70;;;;;;;-141.02;77.14;46116.47;5115446;28;20272;-61
2023/09/06 07:51:43;;;;;;;21.10;20.00;;;;;;;-141.02;75.55;45774.44;5115110;28;20193;-61
2023/09/06 07:54:12;;;;;;;21.30;20.20;;;;;;;-141.02;76.92;45620.72;5115232;28;20217;-68
2023/09/06 07:56:39;;;;;;;21.65;20.55;;;;;;;-141.02;77.31;45415.16;5114939;28;20793;-62
2023/09/06 07:59:11;;;;;;;21.63;20.52;;;;;;;-141.02;76.45;45699.50;5114913;28;20200;-62
2023/09/06 08:01:37;;;;;;;21.90;20.80;;;;;;;-141.02;76.21;45482.38;5115202;28;20188;-61
2023/09/06 08:04:05;;;;;;;21.35;20.35;;;;;;;-141.02;75.03;45905.09;5114807;28;20710;-66
2023/09/06 08:06:32;;;;;;;21.88;20.77;;;;;;;-141.02;73.51;45651.47;5115262;28;20207;-68
2023/09/06 08:08:59;;;;;;;20.77;19.67;;;;;;;-141.02;74.68;46045.38;5114742;28;20193;-62
2023/09/06 08:11:27;;;;;;;21.83;20.73;;;;;;;-141.02;73.90;46669.94;5114669;28;20659;-62
2023/09/06 08:13:54;;;;;;;21.90;20.80;;;;;;;-141.02;71.60;46250.97;5114964;28;20228;-62
2023/09/06 08:16:21;;;;;;;21.50;20.42;;;;;;;-141.02;72.02;45989.63;5114787;28;20197;-63
2023/09/06 08:18:48;;;;;;;21.70;20.60;;;;;;;-141.02;71.59;45970.44;5114825;28;20260;-68
2023/09/06 08:21:16;;;;;;;21.80;20.70;;;;;;;-141.02;70.16;46518.09;5114756;28;20743;-63
2023/09/06 08:23:43;;;;;;;20.92;19.92;;;;;;;-141.02;70.42;46235.59;5114434;28;20580;-71
2023/09/06 08:26:11;;;;;;;21.63;20.52;;;;;;;-141.02;69.68;46427.78;5114679;28;20194;-63
2023/09/06 08:28:39;;;;;;;21.88;20.77;;;;;;;-141.02;69.06;46112.63;5114134;28;20194;-63
2023/09/06 08:31:07;;;;;;;22.10;21.00;;;;;;;-141.02;69.61;46689.16;5114308;28;20203;-70
2023/09/06 08:33:34;;;;;;;22.73;21.63;;;;;;;-141.02;68.91;46316.31;5114055;28;20284;-65
2023/09/06 08:36:01;;;;;;;23.00;21.80;;;;;;;-141.02;67.44;46247.13;5114136;28;20280;-69
2023/09/06 08:38:27;;;;;;;22.35;21.25;;;;;;;-141.02;68.48;45974.28;5114356;28;20224;-70
2023/09/06 08:40:54;;;;;;;21.30;20.20;;;;;;;-141.02;68.18;45482.38;5114285;28;20201;-63
2023/09/06 08:43:24;;;;;;;21.85;20.75;;;;;;;-141.02;67.88;46101.09;5114675;28;20254;-64
2023/09/06 08:45:53;;;;;;;20.45;19.45;;;;;;;-141.02;67.46;46568.06;5113898;28;20189;-63
2023/09/06 08:48:23;;;;;;;20.67;19.58;;;;;;;-141.02;66.56;46531.56;5113857;28;20244;-65
2023/09/06 08:50:50;;;;;;;21.15;20.05;;;;;;;-141.02;65.14;46854.44;5113886;28;20205;-64
2023/09/06 08:53:18;;;;;;;22.60;21.10;;;;;;;-141.02;64.10;47434.97;5113807;28;20235;-69
2023/09/06 08:55:46;;;;;;;21.17;19.98;;;;;;;-141.02;64.84;45799.41;5114386;28;20223;-68
2023/09/06 08:58:14;;;;;;;23.65;22.13;;;;;;;-141.02;65.43;46099.16;5113787;28;20229;-68
2023/09/06 09:00:41;;;;;;;20.98;19.77;;;;;;;-141.02;65.13;46327.84;5113929;28;20286;-67
2023/09/06 09:03:09;;;;;;;21.23;20.02;;;;;;;-141.02;64.56;45878.19;5113916;28;20287;-65
2023/09/06 09:05:37;;;;;;;21.65;20.45;;;;;;;-141.02;64.94;45478.53;5113630;28;20284;-67
2023/09/06 09:08:04;;;;;;;20.92;19.73;;;;;;;-141.02;65.81;45150.03;5113754;28;20201;-65
2023/09/06 09:10:31;;;;;;;21.10;19.90;;;;;;;-141.02;64.19;45709.09;5113421;28;20235;-64
2023/09/06 09:12:59;;;;;;;21.77;20.58;;;;;;;-141.02;62.87;46716.06;5113834;28;20204;-68
2023/09/06 09:15:27;;;;;;;24.10;22.80;;;;;;;-141.02;62.14;46512.34;5113653;28;20221;-69
2023/09/06 09:17:54;;;;;;;21.90;20.70;;;;;;;-141.02;63.58;45732.16;5113628;28;20227;-64
2023/09/06 09:20:22;;;;;;;22.25;21.05;;;;;;;-141.02;62.61;46500.81;5113579;28;20288;-65
2023/09/06 09:22:50;;;;;;;22.77;21.52;;;;;;;-141.02;62.33;46450.84;5113659;28;20262;-68
2023/09/06 09:25:23;;;;;;;22.95;21.65;;;;;;;-141.02;61.28;45616.88;5113511;28;20197;-69
2023/09/06 09:27:51;;;;;;;22.08;20.77;;;;;;;-141.02;62.93;45232.63;5113741;28;20196;-65
2023/09/06 09:30:18;;;;;;;21.55;20.25;;;;;;;-141.02;64.05;44823.47;5113111;28;20281;-68
2023/09/06 09:32:45;;;;;;;21.08;19.88;;;;;;;-141.02;64.33;44512.28;5113389;28;20203;-66
2023/09/06 09:35:13;;;;;;;21.58;20.27;;;;;;;-141.02;63.98;44464.28;5113359;28;20248;-65
2023/09/06 09:37:43;;;;;;;21.45;20.15;;;;;;;-141.02;64.13;44702.44;5113129;28;20327;-65
2023/09/06 09:40:17;;;;;;;21.90;20.60;;;;;;;-141.02;63.40;45707.19;5113758;28;20275;-64
2023/09/06 09:42:52;;;;;;;21.92;20.65;;;;;;;-141.02;60.16;46062.66;5112896;28;20193;-65
2023/09/06 09:45:19;;;;;;;20.83;19.63;;;;;;;-141.02;60.14;45697.56;5112727;28;20185;-65
2023/09/06 09:47:47;;;;;;;20.98;19.67;;;;;;;-141.02;61.11;45426.69;5113079;28;20223;-64
2023/09/06 09:50:16;;;;;;;20.75;19.55;;;;;;;-141.02;61.14;45075.09;5113052;28;20277;-66
2023/09/06 09:52:46;;;;;;;20.98;19.77;;;;;;;-141.02;62.30;45213.44;5113054;28;20250;-63
2023/09/06 09:55:16;;;;;;;20.95;19.75;;;;;;;-141.02;63.00;44679.41;5112729;28;20236;-64
2023/09/06 09:57:44;;;;;;;20.17;18.98;;;;;;;-141.02;62.85;44493.09;5113135;28;20251;-67
2023/09/06 10:00:13;;;;;;;19.80;18.70;;;;;;;-141.02;62.90;44986.75;5112949;28;20258;-65
2023/09/06 10:02:42;;;;;;;19.98;18.88;;;;;;;-141.02;62.46;45824.41;5112938;28;20228;-67
2023/09/06 10:05:12;;;;;;;19.95;18.85;;;;;;;-141.02;61.92;45105.84;5112753;28;20655;-66
2023/09/06 10:07:42;;;;;;;19.70;18.60;;;;;;;-141.02;62.47;44156.97;5113137;28;20193;-63
2023/09/06 10:10:11;;;;;;;20.33;19.23;;;;;;;-141.02;62.31;44975.22;5112859;28;20181;-64
2023/09/06 10:12:43;;;;;;;21.25;19.98;;;;;;;-141.02;62.47;44276.06;5112516;28;20197;-64
2023/09/06 10:15:14;;;;;;;21.50;20.20;;;;;;;-141.02;62.28;44614.09;5112548;28;20225;-69
2023/09/06 10:17:41;;;;;;;21.20;20.00;;;;;;;-141.02;61.29;44491.16;5112726;28;20212;-63
2023/09/06 10:20:12;;;;;;;21.02;19.83;;;;;;;-141.02;61.39;44310.63;5112675;28;20254;-62
2023/09/06 10:22:43;;;;;;;21.23;19.98;;;;;;;-141.02;63.22;44527.66;5112714;28;20192;-63
2023/09/06 10:25:12;;;;;;;20.67;19.48;;;;;;;-141.02;62.39;44233.81;5112708;28;20220;-69
2023/09/06 10:27:46;;;;;;;20.63;19.42;;;;;;;-141.02;62.80;44279.91;5112331;28;20197;-69
2023/09/06 10:30:17;;;;;;;20.67;19.48;;;;;;;-141.02;64.14;43861.25;5112438;28;20614;-67
2023/09/06 10:32:45;;;;;;;21.05;19.85;;;;;;;-141.02;64.70;43888.13;5112312;28;20189;-64
2023/09/06 10:35:27;;;;;;;20.95;19.75;;;;;;;-141.02;63.76;43544.41;5112271;28;20284;-63
2023/09/06 10:38:10;;;;;;;20.48;19.27;;;;;;;-141.02;65.33;43492.56;5112502;28;20208;-69
2023/09/06 10:41:10;;;;;;;20.17;18.98;;;;;;;-141.02;64.93;43580.88;5112546;28;20185;-63
2023/09/06 10:44:02;;;;;;;20.27;19.08;;;;;;;-141.02;65.72;43661.53;5112239;28;20189;-63
2023/09/06 10:46:30;;;;;;;20.10;18.92;;;;;;;-141.02;65.48;43534.78;5112429;28;20246;-63
2023/09/06 10:49:22;;;;;;;20.95;19.75;;;;;;;-141.02;66.03;43294.78;5112127;28;20653;-68
2023/09/06 10:52:00;;;;;;;20.98;19.77;;;;;;;-141.02;64.56;43294.78;5102526;28;20193;-62
2023/09/06 10:54:34;;;;;;;20.98;19.77;;;;;;;-141.02;65.61;43465.66;5112140;28;20280;-69
2023/09/06 10:57:07;;;;;;;20.95;19.75;;;;;;;-141.02;65.84;43212.22;5112982;28;20240;-62
2023/09/06 10:59:38;;;;;;;21.08;19.88;;;;;;;-141.02;67.46;43388.88;5116397;28;20571;-63
2023/09/06 11:02:15;;;;;;;20.35;19.20;;;;;;;-141.02;67.48;43484.88;5116257;28;20272;-62
2023/09/06 11:04:42;;;;;;;20.50;19.30;;;;;;;-141.02;67.17;43444.56;5116247;28;20640;-63
2023/09/06 11:07:10;;;;;;;20.90;19.70;;;;;;;-141.02;67.02;43250.63;5116609;28;20193;-62
2023/09/06 11:09:43;;;;;;;20.75;19.55;;;;;;;-141.02;67.86;43269.81;5116244;28;20189;-68
2023/09/06 11:12:12;;;;;;;20.70;19.50;;;;;;;-141.02;67.99;43266.00;5115825;28;20251;-65
2023/09/06 11:14:40;;;;;;;20.67;19.48;;;;;;;-141.02;68.05;43302.47;5115797;28;20204;-62
2023/09/06 11:17:07;;;;;;;19.85;18.75;;;;;;;-141.02;67.97;43237.19;5115707;28;20204;-68
2023/09/06 11:19:36;;;;;;;19.65;18.55;;;;;;;-141.02;68.99;43398.47;5115622;28;20225;-62
2023/09/06 11:22:07;;;;;;;19.73;18.63;;;;;;;-141.02;68.04;43239.09;5115960;28;20193;-62
2023/09/06 11:24:35;;;;;;;23.75;20.38;;;;;;;-141.02;67.83;43193.03;5115572;28;20571;-63
2023/09/06 11:27:21;;;;;;;19.77;18.67;;;;;;;-141.02;68.31;43525.19;5115840;28;20204;-61
2023/09/06 11:29:55;;;;;;;20.38;19.17;;;;;;;-141.02;67.39;43484.88;5115419;28;20720;-69
2023/09/06 11:32:22;;;;;;;20.40;19.20;;;;;;;-141.02;67.93;43753.69;5115749;28;20270;-62
2023/09/06 11:34:49;;;;;;;20.48;19.27;;;;;;;-141.02;65.54;43450.31;5115656;28;20284;-66
2023/09/06 11:37:18;;;;;;;21.25;20.05;;;;;;;-141.02;66.54;43100.88;5115321;28;20197;-63
2023/09/06 11:39:46;;;;;;;21.10;19.90;;;;;;;-141.02;67.79;42966.47;5115281;28;20686;-61
2023/09/06 11:42:16;;;;;;;21.35;20.25;;;;;;;-141.02;67.61;42851.28;5115604;28;20190;-69
2023/09/06 11:44:49;;;;;;;21.48;20.38;;;;;;;-141.02;67.94;42885.84;5115154;28;20200;-62